Terminal Aerodrome Forecast
Issued by NWS

Home | Current Version | Previous Version | Text Only | Print | Product List | Glossary On
Versions: 1 2 3 4 5 6 7 8 9 10 11 12 13 14 15 16 17 18 19 20 21 22 23 24 25 26 27 28
000
FTUS41 KBOX 181742
TAFFMH
TAF
KFMH 181742Z 1818/1918 04009KT P6SM SKC
     FM182300 02004KT P6SM FEW250
     FM190300 02007KT P6SM BKN050
     FM190400 02009KT P6SM SCT040
     FM191000 02011KT P6SM FEW250=

USA.gov is the U.S. government's official web portal to all federal, state and local government web resources and services.